메인 페이지
METAR-TAF:

METAR-TAF

공항 :

바투미 국제공항

바투미, 조지아

위도: 41-36-37N, 경도: 041-35-58E, 고도: 32m

현재 날씨관측

예보는 16분 전, 13:30시(UTC)에 발표되었습니다.
8kt
온도 22°C
습도 73%
기압 1019 hPa
시정 10km 이상
고도 3300ft 상공 구름 조금

METAR: UGSB 051330Z 36008KT 9999 FEW033 22/17 Q1019 NOSIG

시각: 17:46 (13:46 UTC)

예보

예보는 2 시간 46분 전, 11:00시(UTC)에 발표되었습니다.
예보 대상 시간: 05일 12시부터 06일 12시까지 (UTC)
7kt
시정 10km 이상
고도 3500ft 상공 구름 조금
전환 중
05일 18시부터 05일 21시까지 (UTC)
남동12kt
시정 10km 이상
1500m 미만 상공 구름 및 적란운 없음
전환 중
06일 06시부터 06일 08시까지 (UTC)
서북서7kt

TAF: UGSB 051100Z 0512/0612 35007KT 9999 FEW035 TX26/0611Z TN15/0601Z BECMG 0518/0521 13012KT CAVOK BECMG 0606/0608 30007KT

4,000개 이상의 공항 관측 자료 및 예보 (METAR 및 TAF 보고).

지도상에서 검색 가능한 기상관측소가 노란 점과 빨간 점으로 표시되어 있습니다.

기상관측소 명을 보려면 표시 위로 마우스를 이동하세요.

날씨 관측과 예보를 보려면 클릭하세요.

지도 변경 : 확대하려면 엑스 표시가 있는 녹색 버튼, 축소하려면 빼기 표시가 있는 녹색 버튼, 다음 페이지의 지도를 보려면 녹색 화살표를 클릭하세요.


METAR-TAF: